No 32takemaru — JG5746 — position and weather

sailwx.info

Track history (hours):
 
Tides and Currents Weather Stations Pressure Air Temp Water Temp Dewpoint Dewpoint Depression Visibility Wind Speed Wind Dir Waves Ship Positions

No 32takemaru

Last reported at 2017-Nov-17 22:47 UTC. Time now 2017-Nov-21 19:06 UTC.
Position N 34°39' E 135°28'.

Length 38 m; draft 2.8 m.

Type: Tug. MMSI: 431000341.

Date/timePositionNaut miles runAvg speedWind from/ knotsBaromVisibWave heightAir tempDewpointWater temp
2017-Nov-17 22:47N 34°39' E 135°28'0 0.0
2017-Nov-17 09:13N 34°39' E 135°28'210.1
2017-Nov-17 09:00N 34°39' E 135°25'1 1.9
2017-Nov-17 08:30N 34°39' E 135°24'2 3.9
2017-Nov-17 08:00N 34°39' E 135°27'1 0.1
2017-Nov-16 23:34N 34°39' E 135°28'1 9.2
2017-Nov-16 23:30N 34°39' E 135°27'2 3.3
2017-Nov-16 22:59N 34°39' E 135°25'2 3.9
2017-Nov-16 22:30N 34°38' E 135°23'0 0.2
2017-Nov-16 22:00N 34°38' E 135°24'1 1.8
2017-Nov-16 21:30N 34°39' E 135°24'3 0.1
2017-Nov-16 00:19N 34°39' E 135°28'310.2
2017-Nov-16 00:00N 34°39' E 135°24'0 0.4
2017-Nov-15 23:30N 34°39' E 135°24'0 0.2
2017-Nov-15 23:00N 34°39' E 135°24'1 2.0
2017-Nov-15 22:30N 34°38' E 135°23'0 0.8
2017-Nov-15 22:00N 34°38' E 135°23'3 6.7
2017-Nov-15 21:30N 34°39' E 135°27'1 0.9
2017-Nov-15 20:25N 34°39' E 135°28'0 0.0
2017-Nov-15 19:59N 34°39' E 135°28'0 0.0
2017-Nov-15 19:25N 34°39' E 135°28'0 0.0
2017-Nov-15 18:58N 34°39' E 135°28'0 0.0
2017-Nov-15 18:30N 34°39' E 135°28'0 0.0
2017-Nov-15 17:55N 34°39' E 135°28'0 0.0
2017-Nov-15 17:30N 34°39' E 135°28'0 0.0
2017-Nov-15 17:00N 34°39' E 135°28'0 0.0
2017-Nov-15 16:30N 34°39' E 135°28'0 0.0
2017-Nov-15 15:58N 34°39' E 135°28'0 0.0
2017-Nov-15 15:30N 34°39' E 135°28'0 0.0
2017-Nov-15 14:55N 34°39' E 135°28'0 0.0
2017-Nov-15 14:29N 34°39' E 135°28'0 0.0
2017-Nov-15 13:50N 34°39' E 135°28'0 0.0
2017-Nov-15 13:28N 34°39' E 135°28'0 0.0
2017-Nov-15 12:59N 34°39' E 135°28'0 0.0
2017-Nov-15 12:20N 34°39' E 135°28'0 0.0
2017-Nov-15 11:41N 34°39' E 135°28'0 0.0
2017-Nov-15 08:43N 34°39' E 135°28'2 8.9
2017-Nov-15 08:30N 34°39' E 135°26'1 2.2
2017-Nov-15 07:57N 34°39' E 135°24'1 1.8
2017-Nov-15 07:30N 34°38' E 135°24'1 1.4
2017-Nov-15 07:00N 34°39' E 135°25'1 2.6
2017-Nov-15 06:29N 34°39' E 135°26'0 0.0
2017-Nov-15 05:57N 34°39' E 135°26'0 0.0
2017-Nov-15 05:29N 34°39' E 135°26'0 0.0
2017-Nov-15 04:55N 34°39' E 135°26'0 0.0
2017-Nov-15 04:30N 34°39' E 135°26'0 0.0
2017-Nov-15 04:00N 34°39' E 135°26'2 3.6
2017-Nov-15 03:30N 34°37' E 135°25'0 0.3
2017-Nov-15 03:00N 34°37' E 135°25'1 2.9
2017-Nov-15 02:30N 34°39' E 135°26'2 0.5
2017-Nov-14 22:48N 34°39' E 135°28'0 0.0
2017-Nov-14 22:30N 34°39' E 135°28'0 0.0
2017-Nov-14 22:00N 34°39' E 135°28'0 0.0
2017-Nov-14 21:28N 34°39' E 135°28'0 0.0
2017-Nov-14 21:00N 34°39' E 135°28'0 0.0
2017-Nov-14 20:28N 34°39' E 135°28'0 0.0
2017-Nov-14 17:47N 34°39' E 135°28'0 0.0
2017-Nov-14 11:42N 34°39' E 135°28'0 0.0
2017-Nov-14 11:30N 34°39' E 135°28'3 6.4
2017-Nov-14 11:00N 34°39' E 135°24'1 2.5
2017-Nov-14 10:30N 34°38' E 135°23'3 5.7
2017-Nov-14 10:00N 34°39' E 135°27'1 0.2
2017-Nov-14 05:03N 34°39' E 135°28'0 0.0
2017-Nov-14 04:51N 34°39' E 135°28'0 0.0
2017-Nov-14 03:51N 34°39' E 135°28'0 0.0
2017-Nov-14 03:15N 34°39' E 135°28'0 0.0
2017-Nov-14 02:55N 34°39' E 135°28'0 0.0
2017-Nov-14 00:23N 34°39' E 135°28'0 0.0
2017-Nov-13 23:31N 34°39' E 135°28'0 0.0
2017-Nov-13 23:30N 34°39' E 135°28'3 6.1
2017-Nov-13 23:00N 34°39' E 135°24'1 1.3
2017-Nov-13 22:30N 34°38' E 135°24'0 0.8
2017-Nov-13 22:00N 34°38' E 135°24'4 0.2
2017-Nov-12 23:15N 34°39' E 135°28'2 8.0
2017-Nov-12 23:00N 34°39' E 135°26'1 2.0
2017-Nov-12 22:30N 34°39' E 135°24'0 0.7
2017-Nov-12 22:00N 34°39' E 135°24'2 4.3
2017-Nov-12 21:30N 34°39' E 135°27'1 0.1
2017-Nov-12 01:10N 34°39' E 135°28'2 9.6
2017-Nov-12 00:59N 34°39' E 135°26'1 3.0
2017-Nov-12 00:30N 34°39' E 135°24'0 0.1
2017-Nov-12 00:00N 34°39' E 135°24'3 3.0
2017-Nov-11 23:01N 34°39' E 135°28'0 0.0
2017-Nov-11 22:56N 34°39' E 135°28'0 0.0
2017-Nov-11 22:23N 34°39' E 135°28'0 0.0
2017-Nov-11 21:53N 34°39' E 135°28'0 0.0
2017-Nov-11 21:06N 34°39' E 135°28'0 0.0
2017-Nov-11 14:34N 34°39' E 135°28'0 2.9
2017-Nov-11 14:30N 34°39' E 135°28'3 5.5
2017-Nov-11 14:00N 34°40' E 135°25'0 0.3
2017-Nov-11 13:30N 34°40' E 135°25'3 2.4
2017-Nov-11 12:22N 34°39' E 135°28'0 0.0
2017-Nov-11 11:21N 34°39' E 135°28'0 0.0
2017-Nov-11 10:57N 34°39' E 135°28'0 0.0
2017-Nov-11 10:23N 34°39' E 135°28'0 0.0
2017-Nov-11 07:41N 34°39' E 135°28'0 0.2
2017-Nov-11 07:16N 34°39' E 135°28'310.1
2017-Nov-11 07:00N 34°39' E 135°25'0 0.9
2017-Nov-11 06:30N 34°39' E 135°24'1 1.0
2017-Nov-11 05:57N 34°39' E 135°24'0 0.6
2017-Nov-11 05:30N 34°39' E 135°24'2 4.2
2017-Nov-11 05:00N 34°39' E 135°27'1 0.2
2017-Nov-11 00:14N 34°39' E 135°28'2 9.1
2017-Nov-11 00:00N 34°39' E 135°25'2 3.4
2017-Nov-10 23:30N 34°37' E 135°26'1 3.0
2017-Nov-10 23:00N 34°37' E 135°24'0 0.6
2017-Nov-10 22:30N 34°37' E 135°24'4 6.2
2017-Nov-10 21:55N 34°39' E 135°28'0 0.0
2017-Nov-10 21:30N 34°39' E 135°28'0 0.0
2017-Nov-10 21:00N 34°39' E 135°28'0 0.0
2017-Nov-10 20:30N 34°39' E 135°28'0 0.0
2017-Nov-10 20:00N 34°39' E 135°28'0 0.0
2017-Nov-10 19:30N 34°39' E 135°28'0 0.0
2017-Nov-10 18:58N 34°39' E 135°28'0 0.0
2017-Nov-10 18:28N 34°39' E 135°28'0 0.0
2017-Nov-10 17:47N 34°39' E 135°28'0 0.0
2017-Nov-10 17:28N 34°39' E 135°28'0 0.0
2017-Nov-10 16:04N 34°39' E 135°28'0 0.0
2017-Nov-10 15:48N 34°39' E 135°28'0 0.0
2017-Nov-10 15:10N 34°39' E 135°28'0 0.0
2017-Nov-10 14:57N 34°39' E 135°28'0 0.0
2017-Nov-10 14:14N 34°39' E 135°28'0 0.0
2017-Nov-10 13:56N 34°39' E 135°28'0 0.0
2017-Nov-10 13:28N 34°39' E 135°28'0 0.0
2017-Nov-10 12:50N 34°39' E 135°28'0 0.0
2017-Nov-10 12:19N 34°39' E 135°28'0 0.0
2017-Nov-10 11:55N 34°39' E 135°28'0 0.0
2017-Nov-10 11:29N 34°39' E 135°28'0 0.0
2017-Nov-10 10:57N 34°39' E 135°28'0 0.0
2017-Nov-10 10:24N 34°39' E 135°28'0 0.0
2017-Nov-10 09:49N 34°39' E 135°28'0 0.0
2017-Nov-09 23:14N 34°39' E 135°28'0 0.0
2017-Nov-09 22:08N 34°39' E 135°28'0 0.0
2017-Nov-09 21:54N 34°39' E 135°28'0 0.0
2017-Nov-09 20:15N 34°39' E 135°28'0 0.0
2017-Nov-09 17:01N 34°39' E 135°28'0 0.2
2017-Nov-09 17:00N 34°39' E 135°28'2 4.5
2017-Nov-09 16:29N 34°39' E 135°25'1 2.6
2017-Nov-09 16:00N 34°39' E 135°27'1 0.2
2017-Nov-09 09:00N 34°39' E 135°28'3 6.2
2017-Nov-09 08:30N 34°39' E 135°24'1 2.8
2017-Nov-09 08:00N 34°38' E 135°23'1 1.0
2017-Nov-09 07:30N 34°38' E 135°24'2 4.3
2017-Nov-09 07:00N 34°39' E 135°26'0 0.0
2017-Nov-09 06:30N 34°39' E 135°26'0 0.9
2017-Nov-09 06:00N 34°39' E 135°26'0 0.2
2017-Nov-09 05:30N 34°39' E 135°26'1 1.8
2017-Nov-09 04:59N 34°39' E 135°27'1 0.2
2017-Nov-08 23:32N 34°39' E 135°28'0 4.4
2017-Nov-08 23:30N 34°39' E 135°28'3 5.9
2017-Nov-08 23:00N 34°39' E 135°24'2 3.6
2017-Nov-08 22:30N 34°38' E 135°23'1 1.5
2017-Nov-08 22:00N 34°38' E 135°23'3 5.9
2017-Nov-08 21:30N 34°39' E 135°27'1 1.1
2017-Nov-08 20:43N 34°39' E 135°28'0 0.0
2017-Nov-08 20:27N 34°39' E 135°28'0 0.0
2017-Nov-08 19:49N 34°39' E 135°28'0 0.0
2017-Nov-08 19:25N 34°39' E 135°28'0 0.0
2017-Nov-08 18:43N 34°39' E 135°28'0 0.0
2017-Nov-08 18:29N 34°39' E 135°28'0 0.0
2017-Nov-08 17:56N 34°39' E 135°28'0 0.0
2017-Nov-08 17:27N 34°39' E 135°28'0 0.0
2017-Nov-08 16:54N 34°39' E 135°28'0 0.0
2017-Nov-08 16:30N 34°39' E 135°28'0 0.0
2017-Nov-08 15:57N 34°39' E 135°28'0 0.0
2017-Nov-08 15:14N 34°39' E 135°28'0 0.0
2017-Nov-08 14:58N 34°39' E 135°28'0 0.0
2017-Nov-08 14:29N 34°39' E 135°28'0 0.0
2017-Nov-08 13:55N 34°39' E 135°28'0 0.0
2017-Nov-08 13:14N 34°39' E 135°28'0 0.0
2017-Nov-08 12:58N 34°39' E 135°28'0 0.0
2017-Nov-08 12:29N 34°39' E 135°28'0 0.0
2017-Nov-08 12:00N 34°39' E 135°28'0 0.0
2017-Nov-08 10:31N 34°39' E 135°28'0 0.0
2017-Nov-08 10:25N 34°39' E 135°28'0 0.0
2017-Nov-08 09:46N 34°39' E 135°28'0 0.0
2017-Nov-08 09:28N 34°39' E 135°28'0 0.0
2017-Nov-08 03:27N 34°39' E 135°28'4 8.2
2017-Nov-08 03:00N 34°38' E 135°24'2 2.2
2017-Nov-08 01:54N 34°38' E 135°26'0 0.8
2017-Nov-08 01:29N 34°38' E 135°27'0 0.0
2017-Nov-08 00:42N 34°38' E 135°27'0 0.0
2017-Nov-08 00:30N 34°38' E 135°27'0 0.0
2017-Nov-07 23:59N 34°38' E 135°27'0 0.0
2017-Nov-07 23:30N 34°38' E 135°27'2 3.3
2017-Nov-07 23:00N 34°39' E 135°25'  
Track history (hours):
 
Tides and Currents Weather Stations Pressure Air Temp Water Temp Dewpoint Dewpoint Depression Visibility Wind Speed Wind Dir Waves Ship Positions

No 32takemaru

Last reported at 2017-Nov-17 22:47 UTC. Time now 2017-Nov-21 19:06 UTC.
Position N 34°39' E 135°28'.

Length 38 m; draft 2.8 m.

Type: Tug. MMSI: 431000341.

Date/timePositionNaut miles runAvg speedWind from/ knotsBaromVisibWave heightAir tempDewpointWater temp
2017-Nov-17 22:47N 34°39' E 135°28'0 0.0
2017-Nov-17 09:13N 34°39' E 135°28'210.1
2017-Nov-17 09:00N 34°39' E 135°25'1 1.9
2017-Nov-17 08:30N 34°39' E 135°24'2 3.9
2017-Nov-17 08:00N 34°39' E 135°27'1 0.1
2017-Nov-16 23:34N 34°39' E 135°28'1 9.2
2017-Nov-16 23:30N 34°39' E 135°27'2 3.3
2017-Nov-16 22:59N 34°39' E 135°25'2 3.9
2017-Nov-16 22:30N 34°38' E 135°23'0 0.2
2017-Nov-16 22:00N 34°38' E 135°24'1 1.8
2017-Nov-16 21:30N 34°39' E 135°24'3 0.1
2017-Nov-16 00:19N 34°39' E 135°28'310.2
2017-Nov-16 00:00N 34°39' E 135°24'0 0.4
2017-Nov-15 23:30N 34°39' E 135°24'0 0.2
2017-Nov-15 23:00N 34°39' E 135°24'1 2.0
2017-Nov-15 22:30N 34°38' E 135°23'0 0.8
2017-Nov-15 22:00N 34°38' E 135°23'3 6.7
2017-Nov-15 21:30N 34°39' E 135°27'1 0.9
2017-Nov-15 20:25N 34°39' E 135°28'0 0.0
2017-Nov-15 19:59N 34°39' E 135°28'0 0.0
2017-Nov-15 19:25N 34°39' E 135°28'0 0.0
2017-Nov-15 18:58N 34°39' E 135°28'0 0.0
2017-Nov-15 18:30N 34°39' E 135°28'0 0.0
2017-Nov-15 17:55N 34°39' E 135°28'0 0.0
2017-Nov-15 17:30N 34°39' E 135°28'0 0.0
2017-Nov-15 17:00N 34°39' E 135°28'0 0.0
2017-Nov-15 16:30N 34°39' E 135°28'0 0.0
2017-Nov-15 15:58N 34°39' E 135°28'0 0.0
2017-Nov-15 15:30N 34°39' E 135°28'0 0.0
2017-Nov-15 14:55N 34°39' E 135°28'0 0.0
2017-Nov-15 14:29N 34°39' E 135°28'0 0.0
2017-Nov-15 13:50N 34°39' E 135°28'0 0.0
2017-Nov-15 13:28N 34°39' E 135°28'0 0.0
2017-Nov-15 12:59N 34°39' E 135°28'0 0.0
2017-Nov-15 12:20N 34°39' E 135°28'0 0.0
2017-Nov-15 11:41N 34°39' E 135°28'0 0.0
2017-Nov-15 08:43N 34°39' E 135°28'2 8.9
2017-Nov-15 08:30N 34°39' E 135°26'1 2.2
2017-Nov-15 07:57N 34°39' E 135°24'1 1.8
2017-Nov-15 07:30N 34°38' E 135°24'1 1.4
2017-Nov-15 07:00N 34°39' E 135°25'1 2.6
2017-Nov-15 06:29N 34°39' E 135°26'0 0.0
2017-Nov-15 05:57N 34°39' E 135°26'0 0.0
2017-Nov-15 05:29N 34°39' E 135°26'0 0.0
2017-Nov-15 04:55N 34°39' E 135°26'0 0.0
2017-Nov-15 04:30N 34°39' E 135°26'0 0.0
2017-Nov-15 04:00N 34°39' E 135°26'2 3.6
2017-Nov-15 03:30N 34°37' E 135°25'0 0.3
2017-Nov-15 03:00N 34°37' E 135°25'1 2.9
2017-Nov-15 02:30N 34°39' E 135°26'2 0.5
2017-Nov-14 22:48N 34°39' E 135°28'0 0.0
2017-Nov-14 22:30N 34°39' E 135°28'0 0.0
2017-Nov-14 22:00N 34°39' E 135°28'0 0.0
2017-Nov-14 21:28N 34°39' E 135°28'0 0.0
2017-Nov-14 21:00N 34°39' E 135°28'0 0.0
2017-Nov-14 20:28N 34°39' E 135°28'0 0.0
2017-Nov-14 17:47N 34°39' E 135°28'0 0.0
2017-Nov-14 11:42N 34°39' E 135°28'0 0.0
2017-Nov-14 11:30N 34°39' E 135°28'3 6.4
2017-Nov-14 11:00N 34°39' E 135°24'1 2.5
2017-Nov-14 10:30N 34°38' E 135°23'3 5.7
2017-Nov-14 10:00N 34°39' E 135°27'1 0.2
2017-Nov-14 05:03N 34°39' E 135°28'0 0.0
2017-Nov-14 04:51N 34°39' E 135°28'0 0.0
2017-Nov-14 03:51N 34°39' E 135°28'0 0.0
2017-Nov-14 03:15N 34°39' E 135°28'0 0.0
2017-Nov-14 02:55N 34°39' E 135°28'0 0.0
2017-Nov-14 00:23N 34°39' E 135°28'0 0.0
2017-Nov-13 23:31N 34°39' E 135°28'0 0.0
2017-Nov-13 23:30N 34°39' E 135°28'3 6.1
2017-Nov-13 23:00N 34°39' E 135°24'1 1.3
2017-Nov-13 22:30N 34°38' E 135°24'0 0.8
2017-Nov-13 22:00N 34°38' E 135°24'4 0.2
2017-Nov-12 23:15N 34°39' E 135°28'2 8.0
2017-Nov-12 23:00N 34°39' E 135°26'1 2.0
2017-Nov-12 22:30N 34°39' E 135°24'0 0.7
2017-Nov-12 22:00N 34°39' E 135°24'2 4.3
2017-Nov-12 21:30N 34°39' E 135°27'1 0.1
2017-Nov-12 01:10N 34°39' E 135°28'2 9.6
2017-Nov-12 00:59N 34°39' E 135°26'1 3.0
2017-Nov-12 00:30N 34°39' E 135°24'0 0.1
2017-Nov-12 00:00N 34°39' E 135°24'3 3.0
2017-Nov-11 23:01N 34°39' E 135°28'0 0.0
2017-Nov-11 22:56N 34°39' E 135°28'0 0.0
2017-Nov-11 22:23N 34°39' E 135°28'0 0.0
2017-Nov-11 21:53N 34°39' E 135°28'0 0.0
2017-Nov-11 21:06N 34°39' E 135°28'0 0.0
2017-Nov-11 14:34N 34°39' E 135°28'0 2.9
2017-Nov-11 14:30N 34°39' E 135°28'3 5.5
2017-Nov-11 14:00N 34°40' E 135°25'0 0.3
2017-Nov-11 13:30N 34°40' E 135°25'3 2.4
2017-Nov-11 12:22N 34°39' E 135°28'0 0.0
2017-Nov-11 11:21N 34°39' E 135°28'0 0.0
2017-Nov-11 10:57N 34°39' E 135°28'0 0.0
2017-Nov-11 10:23N 34°39' E 135°28'0 0.0
2017-Nov-11 07:41N 34°39' E 135°28'0 0.2
2017-Nov-11 07:16N 34°39' E 135°28'310.1
2017-Nov-11 07:00N 34°39' E 135°25'0 0.9
2017-Nov-11 06:30N 34°39' E 135°24'1 1.0
2017-Nov-11 05:57N 34°39' E 135°24'0 0.6
2017-Nov-11 05:30N 34°39' E 135°24'2 4.2
2017-Nov-11 05:00N 34°39' E 135°27'1 0.2
2017-Nov-11 00:14N 34°39' E 135°28'2 9.1
2017-Nov-11 00:00N 34°39' E 135°25'2 3.4
2017-Nov-10 23:30N 34°37' E 135°26'1 3.0
2017-Nov-10 23:00N 34°37' E 135°24'0 0.6
2017-Nov-10 22:30N 34°37' E 135°24'4 6.2
2017-Nov-10 21:55N 34°39' E 135°28'0 0.0
2017-Nov-10 21:30N 34°39' E 135°28'0 0.0
2017-Nov-10 21:00N 34°39' E 135°28'0 0.0
2017-Nov-10 20:30N 34°39' E 135°28'0 0.0
2017-Nov-10 20:00N 34°39' E 135°28'0 0.0
2017-Nov-10 19:30N 34°39' E 135°28'0 0.0
2017-Nov-10 18:58N 34°39' E 135°28'0 0.0
2017-Nov-10 18:28N 34°39' E 135°28'0 0.0
2017-Nov-10 17:47N 34°39' E 135°28'0 0.0
2017-Nov-10 17:28N 34°39' E 135°28'0 0.0
2017-Nov-10 16:04N 34°39' E 135°28'0 0.0
2017-Nov-10 15:48N 34°39' E 135°28'0 0.0
2017-Nov-10 15:10N 34°39' E 135°28'0 0.0
2017-Nov-10 14:57N 34°39' E 135°28'0 0.0
2017-Nov-10 14:14N 34°39' E 135°28'0 0.0
2017-Nov-10 13:56N 34°39' E 135°28'0 0.0
2017-Nov-10 13:28N 34°39' E 135°28'0 0.0
2017-Nov-10 12:50N 34°39' E 135°28'0 0.0
2017-Nov-10 12:19N 34°39' E 135°28'0 0.0
2017-Nov-10 11:55N 34°39' E 135°28'0 0.0
2017-Nov-10 11:29N 34°39' E 135°28'0 0.0
2017-Nov-10 10:57N 34°39' E 135°28'0 0.0
2017-Nov-10 10:24N 34°39' E 135°28'0 0.0
2017-Nov-10 09:49N 34°39' E 135°28'0 0.0
2017-Nov-09 23:14N 34°39' E 135°28'0 0.0
2017-Nov-09 22:08N 34°39' E 135°28'0 0.0
2017-Nov-09 21:54N 34°39' E 135°28'0 0.0
2017-Nov-09 20:15N 34°39' E 135°28'0 0.0
2017-Nov-09 17:01N 34°39' E 135°28'0 0.2
2017-Nov-09 17:00N 34°39' E 135°28'2 4.5
2017-Nov-09 16:29N 34°39' E 135°25'1 2.6
2017-Nov-09 16:00N 34°39' E 135°27'1 0.2
2017-Nov-09 09:00N 34°39' E 135°28'3 6.2
2017-Nov-09 08:30N 34°39' E 135°24'1 2.8
2017-Nov-09 08:00N 34°38' E 135°23'1 1.0
2017-Nov-09 07:30N 34°38' E 135°24'2 4.3
2017-Nov-09 07:00N 34°39' E 135°26'0 0.0
2017-Nov-09 06:30N 34°39' E 135°26'0 0.9
2017-Nov-09 06:00N 34°39' E 135°26'0 0.2
2017-Nov-09 05:30N 34°39' E 135°26'1 1.8
2017-Nov-09 04:59N 34°39' E 135°27'1 0.2
2017-Nov-08 23:32N 34°39' E 135°28'0 4.4
2017-Nov-08 23:30N 34°39' E 135°28'3 5.9
2017-Nov-08 23:00N 34°39' E 135°24'2 3.6
2017-Nov-08 22:30N 34°38' E 135°23'1 1.5
2017-Nov-08 22:00N 34°38' E 135°23'3 5.9
2017-Nov-08 21:30N 34°39' E 135°27'1 1.1
2017-Nov-08 20:43N 34°39' E 135°28'0 0.0
2017-Nov-08 20:27N 34°39' E 135°28'0 0.0
2017-Nov-08 19:49N 34°39' E 135°28'0 0.0
2017-Nov-08 19:25N 34°39' E 135°28'0 0.0
2017-Nov-08 18:43N 34°39' E 135°28'0 0.0
2017-Nov-08 18:29N 34°39' E 135°28'0 0.0
2017-Nov-08 17:56N 34°39' E 135°28'0 0.0
2017-Nov-08 17:27N 34°39' E 135°28'0 0.0
2017-Nov-08 16:54N 34°39' E 135°28'0 0.0
2017-Nov-08 16:30N 34°39' E 135°28'0 0.0
2017-Nov-08 15:57N 34°39' E 135°28'0 0.0
2017-Nov-08 15:14N 34°39' E 135°28'0 0.0
2017-Nov-08 14:58N 34°39' E 135°28'0 0.0
2017-Nov-08 14:29N 34°39' E 135°28'0 0.0
2017-Nov-08 13:55N 34°39' E 135°28'0 0.0
2017-Nov-08 13:14N 34°39' E 135°28'0 0.0
2017-Nov-08 12:58N 34°39' E 135°28'0 0.0
2017-Nov-08 12:29N 34°39' E 135°28'0 0.0
2017-Nov-08 12:00N 34°39' E 135°28'0 0.0
2017-Nov-08 10:31N 34°39' E 135°28'0 0.0
2017-Nov-08 10:25N 34°39' E 135°28'0 0.0
2017-Nov-08 09:46N 34°39' E 135°28'0 0.0
2017-Nov-08 09:28N 34°39' E 135°28'0 0.0
2017-Nov-08 03:27N 34°39' E 135°28'4 8.2
2017-Nov-08 03:00N 34°38' E 135°24'2 2.2
2017-Nov-08 01:54N 34°38' E 135°26'0 0.8
2017-Nov-08 01:29N 34°38' E 135°27'0 0.0
2017-Nov-08 00:42N 34°38' E 135°27'0 0.0
2017-Nov-08 00:30N 34°38' E 135°27'0 0.0
2017-Nov-07 23:59N 34°38' E 135°27'0 0.0
2017-Nov-07 23:30N 34°38' E 135°27'2 3.3
2017-Nov-07 23:00N 34°39' E 135°25'  

Dump ship's entire track history